Nyala, Nevada Weather observations

Data are for observation ending at time listed.
 Day   Time    Ave.   Ave.  Ave.  Vector   Max.   Stn.    Total    Solar   Ave.  
  of    of     Air    Rel.  Wind   Wind    Wind   Baro.  Precip.   Rad.    Soil  
Year   Day     Temp.  Hum.  Speed  Dir.    Gust   Pres.                    Temp. 
2015   (PST)    F      %     mph   deg.    mph     mb.     in.     W/m2     F   
------------------------------------------------------------------------------
  30   18:00   42.3    89    3.4    48      6.4    848     0.02       0    42.6
  30   19:00   41.8    92    1.9    20      4.6    848     0.03       0    42.5
  30   20:00   41.5    93    2.9    32      8.3    848     0.03       0    42.3
  30   21:00   41.3    90    3.8    36      8.0    848     0.01       0    42.1
  30   22:00   41.2    88    3.7    39      8.5    848     0.02       0    42.0
  30   23:00   41.1    87    2.4    23      5.2    848     0.02       0    41.8
  31    0:00   41.1    87    3.1    34      7.3    849     0.01       0    41.6
  31    1:00   40.7    88    3.3    28      8.0    849     0.03       0    41.5
  31    2:00   40.2    87    4.3    45      9.6    849     0.03       0    41.3
  31    3:00   39.7    88    5.6    38     11.6    849     0.03       0    41.1
  31    4:00   38.8    89    6.6    30     12.3    849     0.03       0    40.9
  31    5:00   37.9    90    5.1    51     11.5    849     0.04       0    40.7
  31    6:00   37.9    88    7.3    58     13.8    850     0.01       0    40.5
  31    7:00   38.3    87    5.3    54     10.3    850     0.01       0    40.2
  31    8:00   38.6    86    6.3    40     13.6    851     0.01       2    40.0
  31    9:00   39.0    78   10.2    49     19.8    852     0.00      30    39.8
  31   10:00   42.9    68    8.6    34     16.8    852     0.00     181    39.7
  31   11:00   45.4    65    4.6    30      8.8    852     0.00     234    39.9
  31   12:00   46.9    62    4.4    43     11.0    852     0.00     218    40.4
  31   13:00   50.1    57    5.4    32     11.9    852     0.00     262    41.7
  31   14:00   52.1    53    6.1    39     13.2    851     0.00     234    43.8
  31   15:00   53.2    46    5.3    26     10.3    851     0.00     184    45.2
  31   16:00   52.8    43    4.6    52      9.1    851     0.00     115    45.1
  31   17:00   52.2    43    2.8    67      8.0    852     0.00      22    44.7

Return to Nyala, Nevada graphs page.


Western Regional Climate Center,wrcc@dri.edu